Ilorin International Airport

Airport
ICAO code: 
DNIL
IATA Code: 
ILR
Summary
ICAO Region: 
AFI
Territory: 
Location: 
Obansunwa, Kwara State
Serving: 
Ilorin
Elevation: 
1126 ft
Coordinates: 
Aerial View: 
8° 26' 25.008" N, 4° 29' 39.984" E
Metar
Observation
DNIL 050200Z 00000KT 6000 NSC 22/17 Q1011
Station
Ilorin
Date/Time
2021-12-05 02:00:00
Wind direction
Wind speed
00 kts
Lowest cloud amount
nil significant cloud
Temperature
22°C
Dew point
17°C
Humidity
73%
QNH
1011 hPa
Weather condition
n/a

Ilorin International Airport is an airport serving Ilorin, a city in Kwara State of Nigeria.

Climatology

Tropical savanna climate (Köppen climate classification Aw)

Runways

Designator Length Width Surface Rops
5/23 3100 60 ASP No/No
Airport map: 
Aerial View: 

SKYbrary Partners:

Safety knowledge contributed by: